Time;durP1;ratioP1;P1;durP2;ratioP2;P2;SDS_P1;SDS_P2;PMS_P1;PMS_P2;Temp;Humidity;BMP_temperature;BMP_pressure;BME280_temperature;BME280_humidity;BME280_pressure;Samples;Min_cycle;Max_cycle;Signal;HPM_P1;HPM_P2
2023/03/12 00:01:38;;;;;;;13.63;6.97;;;0.50;77.30;;;;;;5045503;28;20246;-74
2023/03/12 00:04:04;;;;;;;14.02;5.90;;;0.50;77.30;;;;;;5051598;28;20212;-74
2023/03/12 00:06:30;;;;;;;12.60;6.40;;;0.60;77.30;;;;;;5050800;28;20239;-73
2023/03/12 00:08:55;;;;;;;13.60;7.10;;;0.50;77.00;;;;;;5047679;28;20506;-73
2023/03/12 00:11:21;;;;;;;14.73;7.27;;;0.40;77.00;;;;;;5051206;28;20188;-75
2023/03/12 00:13:54;;;;;;;12.30;5.77;;;0.50;77.30;;;;;;5050008;28;20219;-73
2023/03/12 00:16:21;;;;;;;12.60;6.15;;;0.40;77.30;;;;;;5051618;28;20189;-73
2023/03/12 00:18:48;;;;;;;12.05;5.10;;;0.40;77.40;;;;;;5047828;28;20255;-73
2023/03/12 00:21:14;;;;;;;10.60;5.40;;;0.50;77.40;;;;;;5037691;28;20184;-74
2023/03/12 00:23:39;;;;;;;10.40;5.10;;;0.50;77.30;;;;;;5052293;28;20545;-73
2023/03/12 00:26:08;;;;;;;8.53;4.53;;;0.50;77.10;;;;;;5033490;28;20280;-73
2023/03/12 00:28:34;;;;;;;9.73;4.82;;;0.50;77.10;;;;;;5046542;28;20208;-73
2023/03/12 00:31:00;;;;;;;11.10;5.47;;;0.50;77.10;;;;;;5049621;28;20199;-72
2023/03/12 00:33:27;;;;;;;12.45;6.20;;;0.50;77.10;;;;;;5046267;28;20435;-73
2023/03/12 00:35:54;;;;;;;14.07;6.50;;;0.50;77.10;;;;;;5032959;28;20568;-72
2023/03/12 00:38:19;;;;;;;8.98;5.75;;;0.50;77.10;;;;;;5043849;28;20227;-74
2023/03/12 00:40:45;;;;;;;10.67;5.20;;;0.50;77.30;;;;;;5032354;28;20619;-73
2023/03/12 00:43:11;;;;;;;13.63;5.13;;;0.50;77.30;;;;;;5023899;28;20671;-74
2023/03/12 00:45:36;;;;;;;7.37;5.10;;;0.50;77.40;;;;;;5032665;28;20197;-72
2023/03/12 00:48:02;;;;;;;9.00;4.07;;;0.50;76.80;;;;;;5048000;28;21745;-72
2023/03/12 00:50:28;;;;;;;8.80;4.43;;;0.40;77.00;;;;;;5049574;28;20180;-74
2023/03/12 00:52:53;;;;;;;6.47;3.47;;;0.50;77.00;;;;;;5051120;28;20430;-72
2023/03/12 00:55:20;;;;;;;5.30;3.93;;;0.50;76.80;;;;;;5048155;28;20207;-73
2023/03/12 00:57:45;;;;;;;8.40;4.53;;;0.50;76.50;;;;;;5031211;28;20200;-73
2023/03/12 01:00:12;;;;;;;8.87;5.20;;;0.50;76.40;;;;;;5047794;28;20206;-73
2023/03/12 01:02:38;;;;;;;8.88;4.43;;;0.50;76.80;;;;;;5050477;28;20180;-72
2023/03/12 01:05:07;;;;;;;11.93;5.55;;;0.50;76.70;;;;;;5051309;28;20188;-73
2023/03/12 01:07:33;;;;;;;11.77;6.05;;;0.50;76.50;;;;;;5049025;28;20207;-74
2023/03/12 01:09:59;;;;;;;13.88;6.15;;;0.50;77.10;;;;;;5049631;28;20299;-74
2023/03/12 01:12:24;;;;;;;9.47;5.97;;;0.60;77.40;;;;;;5051651;28;20604;-73
2023/03/12 01:14:50;;;;;;;13.83;6.00;;;0.60;77.40;;;;;;5044814;28;20191;-73
2023/03/12 01:17:16;;;;;;;9.13;5.47;;;0.60;77.60;;;;;;5031450;28;20300;-73
2023/03/12 01:19:41;;;;;;;10.97;5.30;;;0.60;77.40;;;;;;5049431;28;20632;-73
2023/03/12 01:22:07;;;;;;;10.93;5.53;;;0.50;77.40;;;;;;5048676;28;20244;-73
2023/03/12 01:24:32;;;;;;;12.33;6.50;;;0.50;77.30;;;;;;5033371;28;20215;-73
2023/03/12 01:26:58;;;;;;;17.03;6.00;;;0.50;77.40;;;;;;5046606;28;20192;-74
2023/03/12 01:29:23;;;;;;;11.70;6.10;;;0.60;77.40;;;;;;5031121;28;20235;-73
2023/03/12 01:31:50;;;;;;;8.73;5.43;;;0.60;77.30;;;;;;5053516;28;20188;-73
2023/03/12 01:34:16;;;;;;;15.77;5.95;;;0.60;77.30;;;;;;5054271;28;20187;-74
2023/03/12 01:36:43;;;;;;;12.40;5.93;;;0.60;77.10;;;;;;5051436;28;20185;-73
2023/03/12 01:39:09;;;;;;;9.85;5.43;;;0.70;77.10;;;;;;5046465;28;20638;-73
2023/03/12 01:41:35;;;;;;;10.60;5.10;;;0.80;77.00;;;;;;5049595;28;20202;-73
2023/03/12 01:44:02;;;;;;;8.07;4.37;;;0.90;76.70;;;;;;5049281;28;20423;-73
2023/03/12 01:46:30;;;;;;;10.60;4.85;;;0.90;76.40;;;;;;5030422;28;20559;-73
2023/03/12 01:48:56;;;;;;;11.85;5.00;;;1.00;76.20;;;;;;5028549;28;20228;-72
2023/03/12 01:51:26;;;;;;;8.82;4.40;;;1.00;76.20;;;;;;5052765;28;20180;-73
2023/03/12 01:53:55;;;;;;;9.43;4.75;;;1.10;75.40;;;;;;5054629;28;20263;-73
2023/03/12 01:56:24;;;;;;;11.05;5.00;;;1.00;75.10;;;;;;5051924;28;20181;-73
2023/03/12 01:58:54;;;;;;;7.75;4.45;;;1.10;75.20;;;;;;5045793;28;20258;-75
2023/03/12 02:01:21;;;;;;;8.68;3.97;;;1.10;75.50;;;;;;5048122;28;20211;-74
2023/03/12 02:03:50;;;;;;;11.38;4.97;;;1.20;75.40;;;;;;5050714;28;20181;-72
2023/03/12 02:06:20;;;;;;;15.82;6.35;;;1.30;75.40;;;;;;5052395;28;20200;-73
2023/03/12 02:08:46;;;;;;;9.27;4.90;;;1.30;75.20;;;;;;5021369;28;20223;-73
2023/03/12 02:11:12;;;;;;;8.80;4.88;;;1.20;75.40;;;;;;5048453;28;20272;-73
2023/03/12 02:13:38;;;;;;;8.30;5.07;;;1.30;75.20;;;;;;5046113;28;20263;-74
2023/03/12 02:16:05;;;;;;;11.10;4.97;;;1.30;75.40;;;;;;5048290;28;20675;-73
2023/03/12 02:18:33;;;;;;;8.00;4.80;;;1.40;75.40;;;;;;5040029;28;20478;-73
2023/03/12 02:21:16;;;;;;;8.70;4.77;;;1.40;75.20;;;;;;5045685;28;20561;-73
2023/03/12 02:23:53;;;;;;;10.70;5.33;;;1.50;74.80;;;;;;5043613;28;20446;-72
2023/03/12 02:26:20;;;;;;;8.07;4.50;;;1.50;74.60;;;;;;5025046;28;20414;-72
2023/03/12 02:28:48;;;;;;;8.75;4.38;;;1.50;74.60;;;;;;5040013;28;20217;-73
2023/03/12 02:31:19;;;;;;;7.55;4.70;;;1.50;74.60;;;;;;5048033;28;20272;-73
2023/03/12 02:33:44;;;;;;;15.30;4.80;;;1.60;74.30;;;;;;5048485;28;20190;-72
2023/03/12 02:36:10;;;;;;;9.87;4.23;;;1.50;74.20;;;;;;5047196;28;20284;-71
2023/03/12 02:38:41;;;;;;;9.97;4.30;;;1.50;73.90;;;;;;5045517;28;20647;-72
2023/03/12 02:41:09;;;;;;;6.60;4.15;;;1.50;73.90;;;;;;5049238;28;20435;-73
2023/03/12 02:43:35;;;;;;;7.13;4.67;;;1.50;74.00;;;;;;5046432;28;20181;-73
2023/03/12 02:46:01;;;;;;;10.70;5.30;;;1.50;74.30;;;;;;5047510;28;20472;-73
2023/03/12 02:48:26;;;;;;;10.03;5.20;;;1.60;74.50;;;;;;5044052;28;21269;-74
2023/03/12 02:50:52;;;;;;;7.77;3.90;;;1.50;74.80;;;;;;5030471;28;20184;-73
2023/03/12 02:53:17;;;;;;;11.50;4.50;;;1.50;74.80;;;;;;5050517;28;20280;-73
2023/03/12 02:55:43;;;;;;;12.10;4.80;;;1.60;74.80;;;;;;5046171;28;20227;-74
2023/03/12 02:58:09;;;;;;;13.57;4.83;;;1.50;74.80;;;;;;5047799;28;21090;-72
2023/03/12 03:00:36;;;;;;;8.53;4.50;;;1.50;74.80;;;;;;5050063;28;20197;-74
2023/03/12 03:03:02;;;;;;;8.02;4.53;;;1.50;74.80;;;;;;5050428;28;20215;-74
2023/03/12 03:05:28;;;;;;;7.47;4.70;;;1.50;75.10;;;;;;5045215;28;20211;-73
2023/03/12 03:07:53;;;;;;;8.17;4.60;;;1.50;75.20;;;;;;5045989;28;20188;-73
2023/03/12 03:10:19;;;;;;;11.33;4.67;;;1.50;75.50;;;;;;5045431;28;20275;-74
2023/03/12 03:12:45;;;;;;;9.40;5.03;;;1.50;75.70;;;;;;5048440;28;20766;-72
2023/03/12 03:15:11;;;;;;;8.82;4.13;;;1.50;75.80;;;;;;5049657;28;20189;-74
2023/03/12 03:17:36;;;;;;;8.00;4.47;;;1.50;75.80;;;;;;5046107;28;20188;-73
2023/03/12 03:20:10;;;;;;;10.00;4.23;;;1.50;75.90;;;;;;5049923;28;20209;-73
2023/03/12 03:22:35;;;;;;;14.07;5.55;;;1.50;75.80;;;;;;5052323;28;20181;-72
2023/03/12 03:25:01;;;;;;;9.10;4.27;;;1.50;75.90;;;;;;5050440;28;20231;-73
2023/03/12 03:27:27;;;;;;;12.43;5.80;;;1.50;76.10;;;;;;5051305;28;20305;-73
2023/03/12 03:29:53;;;;;;;9.10;4.50;;;1.60;76.10;;;;;;5048240;28;20262;-73
2023/03/12 03:32:19;;;;;;;18.27;5.75;;;1.60;75.90;;;;;;5052460;28;20272;-73
2023/03/12 03:34:45;;;;;;;11.63;4.70;;;1.60;75.80;;;;;;5046938;28;20661;-71
2023/03/12 03:37:10;;;;;;;7.07;4.80;;;1.60;75.80;;;;;;5048548;28;20330;-73
2023/03/12 03:39:36;;;;;;;21.20;8.10;;;1.70;75.80;;;;;;5046065;28;20572;-72
2023/03/12 03:42:02;;;;;;;16.40;8.77;;;1.70;76.20;;;;;;5048345;28;20185;-75
2023/03/12 03:44:27;;;;;;;16.77;8.20;;;1.70;76.40;;;;;;5045463;28;20196;-73
2023/03/12 03:46:54;;;;;;;16.43;9.00;;;1.70;76.50;;;;;;5046173;28;20193;-72
2023/03/12 03:49:20;;;;;;;16.70;9.37;;;1.80;76.70;;;;;;5048386;28;20327;-72
2023/03/12 03:51:46;;;;;;;14.80;9.90;;;1.70;76.70;;;;;;5051987;28;20514;-73
2023/03/12 03:54:12;;;;;;;22.17;9.73;;;1.80;76.80;;;;;;5023303;28;20574;-73
2023/03/12 03:56:39;;;;;;;15.90;8.80;;;1.80;76.80;;;;;;5046261;28;20947;-72
2023/03/12 03:59:06;;;;;;;14.13;8.00;;;1.80;76.80;;;;;;5048754;28;20222;-73
2023/03/12 04:01:31;;;;;;;16.47;9.00;;;1.80;76.80;;;;;;5045312;28;20439;-73
2023/03/12 04:03:58;;;;;;;14.53;8.30;;;1.90;76.70;;;;;;5049912;28;21072;-73
2023/03/12 04:06:23;;;;;;;13.87;8.07;;;1.90;76.50;;;;;;5046391;28;20192;-73
2023/03/12 04:08:49;;;;;;;12.70;7.97;;;1.90;76.50;;;;;;5041269;28;21037;-74
2023/03/12 04:11:17;;;;;;;14.87;8.53;;;2.00;76.20;;;;;;5048309;28;20455;-71
2023/03/12 04:13:44;;;;;;;20.55;8.63;;;2.10;76.10;;;;;;5033683;28;20595;-72
2023/03/12 04:16:10;;;;;;;18.85;8.20;;;2.10;76.10;;;;;;5051958;28;20577;-73
2023/03/12 04:18:36;;;;;;;16.23;7.70;;;2.10;76.10;;;;;;5054249;28;20235;-73
2023/03/12 04:21:03;;;;;;;15.03;8.57;;;2.10;76.10;;;;;;5053903;28;20419;-73
2023/03/12 04:23:29;;;;;;;16.93;8.20;;;2.20;75.90;;;;;;5054465;28;20415;-73
2023/03/12 04:25:55;;;;;;;17.93;8.53;;;2.20;76.10;;;;;;5055154;28;20423;-73
2023/03/12 04:28:20;;;;;;;12.93;8.30;;;2.20;76.10;;;;;;5045329;28;20636;-73
2023/03/12 04:30:54;;;;;;;17.07;7.73;;;2.10;76.40;;;;;;5047414;28;20185;-73
2023/03/12 04:33:19;;;;;;;20.13;8.67;;;2.10;76.40;;;;;;5047828;28;20189;-73
2023/03/12 04:35:52;;;;;;;13.77;8.70;;;2.20;76.20;;;;;;5048040;28;20751;-73
2023/03/12 04:38:22;;;;;;;16.25;8.10;;;2.20;76.20;;;;;;5043085;28;20204;-73
2023/03/12 04:40:57;;;;;;;13.87;8.73;;;2.20;76.40;;;;;;5047027;28;20740;-72
2023/03/12 04:43:22;;;;;;;16.77;8.40;;;2.20;76.50;;;;;;5046086;28;20430;-73
2023/03/12 04:45:48;;;;;;;15.27;8.60;;;2.20;76.50;;;;;;5048187;28;20430;-72
2023/03/12 04:48:14;;;;;;;12.30;7.27;;;2.30;76.20;;;;;;5043301;28;20217;-73
2023/03/12 04:50:39;;;;;;;13.83;8.03;;;2.40;76.50;;;;;;5050046;28;20766;-72
2023/03/12 04:53:05;;;;;;;13.50;8.07;;;2.40;76.20;;;;;;5043763;28;20279;-72
2023/03/12 04:55:30;;;;;;;11.07;7.53;;;2.50;75.90;;;;;;5054177;28;20275;-73
2023/03/12 04:57:56;;;;;;;15.07;8.20;;;2.50;75.80;;;;;;5030744;28;20199;-73
2023/03/12 05:00:22;;;;;;;18.70;7.77;;;2.60;75.50;;;;;;5052543;28;20199;-73
2023/03/12 05:02:47;;;;;;;14.50;8.10;;;2.60;75.50;;;;;;5049805;28;20191;-72
2023/03/12 05:05:13;;;;;;;12.60;7.50;;;2.70;75.70;;;;;;5044985;28;20224;-73
2023/03/12 05:07:38;;;;;;;13.97;8.10;;;2.70;75.50;;;;;;5049428;28;20267;-73
2023/03/12 05:10:04;;;;;;;16.20;8.03;;;2.80;75.70;;;;;;5046187;28;20579;-73
2023/03/12 05:12:30;;;;;;;13.10;7.80;;;2.80;75.70;;;;;;5049633;28;20746;-73
2023/03/12 05:14:55;;;;;;;11.07;7.97;;;2.90;75.40;;;;;;5050196;28;20510;-73
2023/03/12 05:17:21;;;;;;;15.20;7.63;;;2.80;75.40;;;;;;5049395;28;20180;-73
2023/03/12 05:19:47;;;;;;;14.60;8.00;;;2.90;75.40;;;;;;5047153;28;20232;-74
2023/03/12 05:22:12;;;;;;;19.80;7.83;;;3.00;74.80;;;;;;5046185;28;20647;-73
2023/03/12 05:24:38;;;;;;;11.00;7.33;;;3.10;74.50;;;;;;5047480;28;20184;-73
2023/03/12 05:27:04;;;;;;;15.27;8.43;;;3.10;74.50;;;;;;5043374;28;20186;-72
2023/03/12 05:29:34;;;;;;;11.70;6.73;;;3.10;74.20;;;;;;5047312;28;20642;-73
2023/03/12 05:32:00;;;;;;;14.00;6.77;;;3.10;74.50;;;;;;5050299;28;20427;-72
2023/03/12 05:34:29;;;;;;;13.77;8.17;;;3.10;74.60;;;;;;5025718;28;20415;-73
2023/03/12 05:36:55;;;;;;;13.77;8.20;;;3.10;74.80;;;;;;5048928;28;20457;-73
2023/03/12 05:39:21;;;;;;;11.70;6.83;;;3.10;74.90;;;;;;5045368;28;20482;-73
2023/03/12 05:41:46;;;;;;;13.73;7.30;;;3.10;75.10;;;;;;5046714;28;20431;-73
2023/03/12 05:44:14;;;;;;;12.40;7.10;;;3.10;75.20;;;;;;5042687;28;20184;-72
2023/03/12 05:46:40;;;;;;;9.80;6.57;;;3.10;75.40;;;;;;5050501;28;20734;-73
2023/03/12 05:49:06;;;;;;;14.03;7.70;;;3.20;75.20;;;;;;5048713;28;20485;-73
2023/03/12 05:51:32;;;;;;;14.00;6.93;;;3.10;75.40;;;;;;5051566;28;20505;-73
2023/03/12 05:53:58;;;;;;;16.07;6.60;;;3.30;75.90;;;;;;5033391;28;20461;-75
2023/03/12 05:56:24;;;;;;;11.33;7.37;;;3.30;75.80;;;;;;5051139;28;20241;-74
2023/03/12 05:58:50;;;;;;;13.90;7.50;;;3.40;75.80;;;;;;5048074;28;20819;-73
2023/03/12 06:01:20;;;;;;;15.03;7.73;;;3.30;75.90;;;;;;5052558;28;20425;-72
2023/03/12 06:03:46;;;;;;;15.83;8.50;;;3.30;76.10;;;;;;5049210;28;20193;-74
2023/03/12 06:06:11;;;;;;;13.03;6.63;;;3.40;76.70;;;;;;5032326;28;20456;-73
2023/03/12 06:08:38;;;;;;;7.83;6.30;;;3.30;76.80;;;;;;5044828;28;20570;-74
2023/03/12 06:11:04;;;;;;;10.30;6.33;;;3.30;76.80;;;;;;5052200;28;20184;-72
2023/03/12 06:13:30;;;;;;;10.70;6.93;;;3.30;76.80;;;;;;5050977;28;20514;-74
2023/03/12 06:16:04;;;;;;;21.17;6.90;;;3.30;77.10;;;;;;5051423;28;20246;-73
2023/03/12 06:18:31;;;;;;;17.90;6.90;;;3.30;77.80;;;;;;5042260;28;20446;-73
2023/03/12 06:21:14;;;;;;;22.93;11.20;;;3.30;78.90;;;;;;5046521;28;20425;-73
2023/03/12 06:23:41;;;;;;;11.40;6.97;;;3.20;79.50;;;;;;5032551;28;20427;-73
2023/03/12 06:26:07;;;;;;;16.43;7.70;;;3.30;80.30;;;;;;5051150;28;20418;-74
2023/03/12 06:28:34;;;;;;;11.10;6.40;;;3.30;80.80;;;;;;5046962;28;20520;-72
2023/03/12 06:30:59;;;;;;;11.40;6.63;;;3.30;81.20;;;;;;5037281;28;20422;-73
2023/03/12 06:33:25;;;;;;;12.83;7.03;;;3.40;81.50;;;;;;5051381;28;20434;-73
2023/03/12 06:35:55;;;;;;;13.30;7.60;;;3.40;81.90;;;;;;5049749;28;20423;-72
2023/03/12 06:38:20;;;;;;;11.33;6.27;;;3.50;82.10;;;;;;5050858;28;20217;-72
2023/03/12 06:40:58;;;;;;;10.50;6.20;;;3.50;82.40;;;;;;5055216;28;20534;-73
2023/03/12 06:43:25;;;;;;;17.73;7.17;;;3.40;82.50;;;;;;5055079;28;20267;-72
2023/03/12 06:45:50;;;;;;;9.07;6.20;;;3.50;82.40;;;;;;5035181;28;20439;-73
2023/03/12 06:48:17;;;;;;;12.80;6.40;;;3.40;82.40;;;;;;5052065;28;20474;-73
2023/03/12 06:50:43;;;;;;;14.17;6.57;;;3.50;82.50;;;;;;5038833;28;20261;-72
2023/03/12 06:53:09;;;;;;;16.57;7.17;;;3.50;82.80;;;;;;5056314;28;20419;-73
2023/03/12 06:55:34;;;;;;;10.07;6.43;;;3.50;82.80;;;;;;5057232;28;20267;-73
2023/03/12 06:58:01;;;;;;;12.43;7.70;;;3.50;83.30;;;;;;5064549;28;20184;-74
2023/03/12 07:00:27;;;;;;;13.87;8.47;;;3.50;83.10;;;;;;5069689;28;20199;-73
2023/03/12 07:02:53;;;;;;;17.60;9.03;;;3.50;82.80;;;;;;5072726;28;20531;-72
2023/03/12 07:05:18;;;;;;;17.87;9.10;;;3.50;82.80;;;;;;5069878;28;20256;-72
2023/03/12 07:07:44;;;;;;;13.00;9.00;;;3.60;83.10;;;;;;5062895;28;20185;-73
2023/03/12 07:10:11;;;;;;;14.37;9.13;;;3.60;83.00;;;;;;5058220;28;20224;-73
2023/03/12 07:12:36;;;;;;;15.17;9.03;;;3.50;83.30;;;;;;5069803;28;20172;-72
2023/03/12 07:15:02;;;;;;;16.87;9.40;;;3.40;83.70;;;;;;5061721;28;20492;-73
2023/03/12 07:17:28;;;;;;;21.00;10.50;;;3.40;84.40;;;;;;5071789;28;20188;-73
2023/03/12 07:19:54;;;;;;;14.93;9.77;;;3.40;85.00;;;;;;5048967;28;20598;-72
2023/03/12 07:22:19;;;;;;;19.23;10.50;;;3.40;85.30;;;;;;5062922;28;20188;-73
2023/03/12 07:24:45;;;;;;;14.00;8.50;;;3.40;85.60;;;;;;5071176;28;20188;-73
2023/03/12 07:27:10;;;;;;;18.13;9.40;;;3.30;85.90;;;;;;5049216;28;20169;-72
2023/03/12 07:29:36;;;;;;;14.30;9.20;;;3.30;86.30;;;;;;5072844;28;20219;-73
2023/03/12 07:32:02;;;;;;;16.60;8.97;;;3.30;86.60;;;;;;5073552;28;20188;-74
2023/03/12 07:34:27;;;;;;;17.00;9.40;;;3.30;86.80;;;;;;5068726;28;20189;-74
2023/03/12 07:36:53;;;;;;;15.20;8.63;;;3.30;86.60;;;;;;5052056;28;20640;-71
2023/03/12 07:39:19;;;;;;;16.13;9.20;;;3.30;86.60;;;;;;5053451;28;20649;-73
2023/03/12 07:41:45;;;;;;;12.50;8.37;;;3.30;86.60;;;;;;5054416;28;20521;-73
2023/03/12 07:44:10;;;;;;;14.87;8.40;;;3.50;86.60;;;;;;5064935;28;20200;-72
2023/03/12 07:46:36;;;;;;;14.07;8.47;;;3.70;86.20;;;;;;5065569;28;20234;-72
2023/03/12 07:49:03;;;;;;;12.83;8.13;;;3.70;85.90;;;;;;5064443;28;20212;-73
2023/03/12 07:51:28;;;;;;;11.77;7.43;;;3.80;85.50;;;;;;5067880;28;20176;-73
2023/03/12 07:53:54;;;;;;;14.10;7.67;;;4.00;85.00;;;;;;5069631;28;20447;-73
2023/03/12 07:56:20;;;;;;;11.70;7.33;;;4.10;84.70;;;;;;5068438;28;20192;-73
2023/03/12 07:58:45;;;;;;;11.30;7.90;;;4.30;84.40;;;;;;5066589;28;20188;-73
2023/03/12 08:01:11;;;;;;;12.63;6.60;;;4.50;84.00;;;;;;5059067;28;20192;-73
2023/03/12 08:03:37;;;;;;;12.97;7.43;;;4.60;83.70;;;;;;5056714;28;20188;-72
2023/03/12 08:06:04;;;;;;;11.10;7.13;;;4.80;83.30;;;;;;5055412;28;20196;-72
2023/03/12 08:08:30;;;;;;;13.80;7.90;;;4.70;82.10;;;;;;5062197;28;20479;-73
2023/03/12 08:10:57;;;;;;;12.43;8.13;;;4.60;81.80;;;;;;5057845;28;20427;-73
2023/03/12 08:13:24;;;;;;;16.67;8.33;;;4.70;81.90;;;;;;5052296;28;20547;-73
2023/03/12 08:15:50;;;;;;;12.60;8.07;;;4.70;81.80;;;;;;5052295;28;20886;-72
2023/03/12 08:18:17;;;;;;;10.30;7.20;;;4.70;81.80;;;;;;5057260;28;20470;-72
2023/03/12 08:20:42;;;;;;;14.60;7.80;;;4.90;81.80;;;;;;5050974;28;20427;-73
2023/03/12 08:23:08;;;;;;;9.93;6.90;;;4.80;81.20;;;;;;5046051;28;20431;-75
2023/03/12 08:25:35;;;;;;;12.43;7.50;;;4.90;81.50;;;;;;5051144;28;20197;-72
2023/03/12 08:28:02;;;;;;;11.13;7.13;;;4.80;81.50;;;;;;5043941;28;20676;-73
2023/03/12 08:30:28;;;;;;;14.87;7.30;;;4.80;81.70;;;;;;5051239;28;20453;-73
2023/03/12 08:32:54;;;;;;;14.13;7.73;;;4.70;81.40;;;;;;5049972;28;20415;-73
2023/03/12 08:35:19;;;;;;;11.80;7.20;;;4.70;81.70;;;;;;5051650;28;20800;-72
2023/03/12 08:37:45;;;;;;;10.00;7.47;;;4.70;82.20;;;;;;5049306;28;20189;-73
2023/03/12 08:40:12;;;;;;;14.27;8.57;;;4.70;82.10;;;;;;5049523;28;20390;-73
2023/03/12 08:42:39;;;;;;;15.57;7.77;;;4.70;82.20;;;;;;5056210;28;20184;-72
2023/03/12 08:45:05;;;;;;;14.20;7.47;;;4.70;82.50;;;;;;5057629;28;20458;-74
2023/03/12 08:47:31;;;;;;;13.43;7.87;;;4.80;83.00;;;;;;5049175;28;20491;-73
2023/03/12 08:49:57;;;;;;;16.13;8.33;;;4.90;83.40;;;;;;5047921;28;21203;-73
2023/03/12 08:52:23;;;;;;;12.93;7.30;;;5.10;83.60;;;;;;5047116;28;20543;-73
2023/03/12 08:54:48;;;;;;;10.10;7.57;;;5.00;83.60;;;;;;5047817;28;20438;-74
2023/03/12 08:57:15;;;;;;;12.00;8.17;;;5.20;83.80;;;;;;5045364;28;20184;-73
2023/03/12 08:59:40;;;;;;;12.77;7.77;;;5.30;83.80;;;;;;5043447;28;20307;-74
2023/03/12 09:02:06;;;;;;;17.73;8.23;;;5.40;83.60;;;;;;5046764;28;20502;-74
2023/03/12 09:04:31;;;;;;;10.83;6.63;;;5.40;83.10;;;;;;5045888;28;20183;-73
2023/03/12 09:06:59;;;;;;;12.23;7.70;;;5.60;83.40;;;;;;5049452;28;20192;-74
2023/03/12 09:09:24;;;;;;;13.33;8.00;;;5.70;83.30;;;;;;5046865;28;20216;-73
2023/03/12 09:11:50;;;;;;;13.60;7.90;;;5.80;83.10;;;;;;5047606;28;20427;-74
2023/03/12 09:14:15;;;;;;;12.83;7.50;;;5.80;83.80;;;;;;5048176;28;20292;-73
2023/03/12 09:16:41;;;;;;;13.23;8.00;;;5.90;84.00;;;;;;5050385;28;20187;-74
2023/03/12 09:19:07;;;;;;;13.30;7.60;;;6.10;84.40;;;;;;5047872;28;20212;-74
2023/03/12 09:21:32;;;;;;;12.40;7.40;;;6.20;84.10;;;;;;5049376;28;20322;-74
2023/03/12 09:23:58;;;;;;;12.30;7.30;;;6.30;83.70;;;;;;5047846;28;20192;-73
2023/03/12 09:26:23;;;;;;;14.10;7.77;;;6.30;83.80;;;;;;5027454;28;20549;-74
2023/03/12 09:28:49;;;;;;;15.10;7.40;;;6.50;83.80;;;;;;5039606;28;20219;-74
2023/03/12 09:31:15;;;;;;;15.70;8.80;;;6.50;83.60;;;;;;5050118;28;20656;-75
2023/03/12 09:33:41;;;;;;;15.40;8.97;;;6.40;83.60;;;;;;5045035;28;20522;-74
2023/03/12 09:36:06;;;;;;;11.80;7.30;;;6.50;84.60;;;;;;5043869;28;20181;-73
2023/03/12 09:38:34;;;;;;;12.63;7.60;;;6.70;84.70;;;;;;5040749;28;20212;-74
2023/03/12 09:41:02;;;;;;;13.93;7.97;;;6.80;84.90;;;;;;5051964;28;20404;-73
2023/03/12 09:43:41;;;;;;;17.10;9.10;;;7.00;84.60;;;;;;5041298;28;20412;-73
2023/03/12 09:46:16;;;;;;;15.57;7.70;;;7.10;84.10;;;;;;5044707;28;20419;-75
2023/03/12 09:48:43;;;;;;;15.90;8.00;;;7.20;83.60;;;;;;5044254;28;20473;-73
2023/03/12 09:51:25;;;;;;;14.83;8.57;;;7.30;83.30;;;;;;5033137;28;20423;-73
2023/03/12 09:53:54;;;;;;;17.60;7.67;;;7.30;83.30;;;;;;5046146;28;20419;-72
2023/03/12 09:56:21;;;;;;;12.37;8.03;;;7.40;83.40;;;;;;5044985;28;20451;-74
2023/03/12 09:58:47;;;;;;;16.40;8.80;;;7.60;83.40;;;;;;5051154;28;20462;-72
2023/03/12 10:01:37;;;;;;;14.20;9.03;;;7.60;83.00;;;;;;5048522;28;20595;-74
2023/03/12 10:04:25;;;;;;;17.57;8.27;;;7.80;83.00;;;;;;5055432;28;20439;-74
2023/03/12 10:07:10;;;;;;;15.67;9.33;;;7.90;82.40;;;;;;5047259;28;20829;-73
2023/03/12 10:09:52;;;;;;;16.60;8.93;;;8.00;82.80;;;;;;5043904;28;20485;-74
2023/03/12 10:12:40;;;;;;;17.60;8.70;;;8.10;81.80;;;;;;5047595;28;20997;-74
2023/03/12 10:15:34;;;;;;;14.57;7.80;;;8.10;82.10;;;;;;5043119;28;20419;-74
2023/03/12 10:18:09;;;;;;;14.60;8.43;;;8.40;82.10;;;;;;5045314;28;20910;-74
2023/03/12 10:21:05;;;;;;;13.10;8.40;;;8.60;82.10;;;;;;5046440;28;20497;-74
2023/03/12 10:24:02;;;;;;;5.67;3.50;;;8.90;81.40;;;;;;5023980;28;20454;-73
2023/03/12 10:26:33;;;;;;;5.40;3.13;;;9.00;82.70;;;;;;5046205;28;20938;-75
2023/03/12 10:29:20;;;;;;;6.27;3.23;;;9.00;83.80;;;;;;5045868;28;20471;-74
2023/03/12 10:31:57;;;;;;;11.97;2.80;;;9.30;84.10;;;;;;5030612;28;20482;-74
2023/03/12 10:34:36;;;;;;;5.03;2.93;;;9.30;84.30;;;;;;5030248;28;20942;-74
2023/03/12 10:37:25;;;;;;;4.00;2.40;;;9.30;84.60;;;;;;5027639;28;20427;-73
2023/03/12 10:39:54;;;;;;;5.40;2.63;;;9.40;84.90;;;;;;5042161;28;20613;-74
2023/03/12 10:42:22;;;;;;;5.77;3.07;;;9.60;84.90;;;;;;5046405;28;20423;-73
2023/03/12 10:44:51;;;;;;;4.80;2.87;;;9.60;84.60;;;;;;5048012;28;20430;-73
2023/03/12 10:47:36;;;;;;;4.07;2.37;;;9.50;84.90;;;;;;5048867;28;20423;-73
2023/03/12 10:50:15;;;;;;;2.70;2.17;;;9.60;84.90;;;;;;5046165;28;20832;-72
2023/03/12 10:52:41;;;;;;;3.67;2.33;;;9.60;84.60;;;;;;5042032;28;20424;-72
2023/03/12 10:55:25;;;;;;;4.07;2.73;;;9.50;85.00;;;;;;5047607;28;20430;-73
2023/03/12 10:57:51;;;;;;;4.60;2.23;;;9.50;86.20;;;;;;5046102;28;20419;-73
2023/03/12 11:00:23;;;;;;;4.83;2.90;;;9.50;86.80;;;;;;5028002;28;20438;-72
2023/03/12 11:03:19;;;;;;;4.33;2.90;;;9.50;87.30;;;;;;5044862;28;20411;-73
2023/03/12 11:05:47;;;;;;;4.63;2.70;;;9.40;88.00;;;;;;5046984;28;20477;-74
2023/03/12 11:08:28;;;;;;;6.13;2.90;;;9.40;88.40;;;;;;5045308;28;20442;-73
2023/03/12 11:10:56;;;;;;;6.17;2.50;;;9.40;88.60;;;;;;5052048;28;20501;-73
2023/03/12 11:13:39;;;;;;;7.07;2.87;;;9.40;88.70;;;;;;5032075;28;20568;-72
2023/03/12 11:16:27;;;;;;;5.37;2.90;;;9.60;88.30;;;;;;5048848;28;20436;-73
2023/03/12 11:19:04;;;;;;;3.53;3.00;;;9.80;87.80;;;;;;5043588;28;20467;-73
2023/03/12 11:21:37;;;;;;;4.87;2.93;;;9.80;86.90;;;;;;5050883;28;20479;-73
2023/03/12 11:24:10;;;;;;;5.40;2.57;;;9.80;86.00;;;;;;5050559;28;20433;-74
2023/03/12 11:26:49;;;;;;;4.43;2.87;;;9.90;86.30;;;;;;5049666;28;20421;-73
2023/03/12 11:29:23;;;;;;;8.40;2.13;;;10.10;86.00;;;;;;5046921;28;20474;-73
2023/03/12 11:31:58;;;;;;;3.50;2.03;;;10.20;85.00;;;;;;5051821;28;20426;-73
2023/03/12 11:34:31;;;;;;;2.77;1.80;;;10.40;84.90;;;;;;5047535;28;20724;-72
2023/03/12 11:37:26;;;;;;;2.60;1.97;;;10.50;84.40;;;;;;5046550;28;20415;-73
2023/03/12 11:40:13;;;;;;;2.20;1.70;;;10.60;84.40;;;;;;5045039;28;20483;-74
2023/03/12 11:43:04;;;;;;;2.03;1.30;;;10.80;83.40;;;;;;5047054;28;20427;-72
2023/03/12 11:45:44;;;;;;;1.67;1.07;;;10.80;82.80;;;;;;5054033;28;20952;-74
2023/03/12 11:48:42;;;;;;;2.07;1.20;;;10.80;82.40;;;;;;5047774;28;20521;-73
2023/03/12 11:51:40;;;;;;;2.60;1.10;;;10.80;82.80;;;;;;4993625;28;20574;-73
2023/03/12 11:54:28;;;;;;;2.20;1.20;;;10.90;82.70;;;;;;5047807;28;20552;-73
2023/03/12 11:57:00;;;;;;;2.13;1.30;;;11.00;82.20;;;;;;5051158;28;20419;-73
2023/03/12 11:59:47;;;;;;;1.87;1.10;;;11.00;82.40;;;;;;5048781;28;20620;-73
2023/03/12 12:02:33;;;;;;;3.97;1.20;;;11.00;82.40;;;;;;5048781;28;21039;-73
2023/03/12 12:05:23;;;;;;;1.73;0.90;;;11.10;81.90;;;;;;5054705;28;20442;-72
2023/03/12 12:08:06;;;;;;;2.30;1.13;;;11.20;81.40;;;;;;5056176;28;20426;-74
2023/03/12 12:10:53;;;;;;;2.57;1.20;;;11.00;81.40;;;;;;5051487;28;20912;-73
2023/03/12 12:13:56;;;;;;;1.80;1.30;;;11.10;81.80;;;;;;5033733;28;20427;-73
2023/03/12 12:16:47;;;;;;;5.30;1.40;;;11.30;81.50;;;;;;5048413;28;20415;-73
2023/03/12 12:20:02;;;;;;;3.57;1.60;;;11.60;81.10;;;;;;5047834;28;20943;-74
2023/03/12 12:22:35;;;;;;;3.23;1.10;;;11.70;79.50;;;;;;4969136;28;20884;-73
2023/03/12 12:25:34;;;;;;;2.50;1.40;;;11.80;78.60;;;;;;5041389;28;20489;-72
2023/03/12 12:28:17;;;;;;;2.60;1.53;;;11.70;78.70;;;;;;5043291;28;20427;-72
2023/03/12 12:30:57;;;;;;;2.80;1.37;;;11.70;79.20;;;;;;5050132;28;20419;-74
2023/03/12 12:33:57;;;;;;;3.53;1.27;;;12.00;78.70;;;;;;5048826;28;20426;-73
2023/03/12 12:36:26;;;;;;;2.33;1.07;;;12.30;76.70;;;;;;5033834;28;20427;-73
2023/03/12 12:39:20;;;;;;;2.70;1.43;;;12.20;76.70;;;;;;5051954;28;20470;-73
2023/03/12 12:41:54;;;;;;;3.77;1.40;;;12.20;76.50;;;;;;5034900;28;20453;-73
2023/03/12 12:44:24;;;;;;;4.70;1.40;;;12.40;75.50;;;;;;5032730;28;20442;-73
2023/03/12 12:47:00;;;;;;;2.60;1.30;;;12.40;74.80;;;;;;5051824;28;20450;-73
2023/03/12 12:50:02;;;;;;;3.07;1.73;;;12.40;75.20;;;;;;5051018;28;20880;-72
2023/03/12 12:52:28;;;;;;;2.90;1.63;;;12.30;74.90;;;;;;4969364;28;20516;-74
2023/03/12 12:55:09;;;;;;;5.00;1.90;;;12.40;75.10;;;;;;4970998;28;20493;-75
2023/03/12 12:57:41;;;;;;;3.90;1.73;;;12.50;74.20;;;;;;4969272;28;20223;-74
2023/03/12 13:00:22;;;;;;;3.43;1.60;;;12.60;73.50;;;;;;4966797;28;20477;-74
2023/03/12 13:02:49;;;;;;;6.97;2.10;;;12.60;73.30;;;;;;4968164;28;20466;-73